Архив погоды в Козьмодемьянске

Метеограмма Козьмодемьянск
Воскресенье, 22 Июля
Время местн. Темп Ветер Видим Явления Облачность нижн/средн/верх Атм. давл. Влжн Точка росы ВНГО R Сост. почвы Tg s
Напр Скр Прв ур.ст ур.м изм
00:00 +19.7° В 5 8 10 км - облачно 751 760 -0.2 77% +15.5° - - - - -
Суббота, 21 Июля
Время местн. Темп Ветер Видим Явления Облачность нижн/средн/верх Атм. давл. Влжн Точка росы ВНГО R Сост. почвы Tg s
Напр Скр Прв ур.ст ур.м изм
21:00 +21° В 3 6 50 км - облачно 751 761 +0.6 72% +15.7° - - - - -
18:00 +21.6° В 4 7 50 км - облачно 751 760 -0.4 77% +17.4° 1 км - - - -
15:00 +20.7° В 5 8 50 км - облачно 751 760 +0.5 75% +16.2° 1 км - - - -
12:00 +20.8° В 5 9 50 км - облачно 750 760 +0.6 75% +16.2° 1 км - - - -
09:00 +19.8° В 4 8 50 км - облачно 750 759 +0.4 84% +17° 600 м - - - -
06:00 +19.8° В 4 7 50 км - облачно 750 759 +0.2 80% +16.3° 600 м - Влажная (без луж) - -
03:00 +19.2° В 4 6 50 км - облачно 749 759 -0.1 84% +16.5° 600 м - - - -
00:00 +19.7° В 4 6 10 км - облачно 749 759 +0.1 82% +16.5° 600 м - - - -
Пятница, 20 Июля
Время местн. Темп Ветер Видим Явления Облачность нижн/средн/верх Атм. давл. Влжн Точка росы ВНГО R Сост. почвы Tg s
Напр Скр Прв ур.ст ур.м изм
21:00 +21.6° В 5 8 50 км - облачно 749 759 +0.4 72% +16.4° - - - - -
18:00 +23.6° В 5 8 50 км - облачно 749 758 -0.1 63% +16.2° 1 км - - - -
15:00 +24.2° В,С-В 5 9 50 км - переменная облачность 749 758 +0.2 72% +18.9° 1 км - - - -
12:00 +24.6° В 5 8 50 км - облачно с прояснениями 749 758 0 71% +19° 1 км - - - -
09:00 +21.1° В 3 5 50 км - облачно с прояснениями 749 758 +0.2 86% +18.7° 1 км - - - -
06:00 +19.5° В 2 4 18 км - облачно 749 758 +0.6 94% +18.5° 300 м - Влажная (без луж) - -
03:00 +19.1° В 3 7 50 км небо без изменений {ливневые осадки} облачно с прояснениями 748 757 +0.4 93% +18° 1 км - - - -
00:00 +19.9° В 3 6 10 км небо без изменений {ливневые осадки} переменная облачность 748 757 +0.8 95% +19° 600 м - - - -
Четверг, 19 Июля
Время местн. Темп Ветер Видим Явления Облачность нижн/средн/верх Атм. давл. Влжн Точка росы ВНГО R Сост. почвы Tg s
Напр Скр Прв ур.ст ур.м изм
21:00 +20.6° В,Ю-В 3 7 50 км слабый ливневый дождь облачно 747 756 +0.9 92% +19.3° 600 м - - - -
18:00 +22.5° Ю-В 3 4 50 км - облачно с прояснениями 746 755 +0.4 82% +19.2° 1 км - - - -
15:00 +24° В,Ю-В 3 6 50 км - облачно 746 755 0 76% +19.5° 1 км - - - -
12:00 +22° В 3 4 50 км - облачно 746 755 +0.1 85% +19.3° 1 км - - - -
09:00 +20.4° В 2 4 50 км небо без изменений {ливневые осадки} облачно 746 755 +0.4 92% +19.1° 300 м - - - -
06:00 +19.6° В 3 5 50 км - облачно 745 754 +0.3 95% +18.7° 300 м - Влажная (без луж) - -
03:00 +19.8° В 4 6 50 км - облачно 745 754 -0.2 92% +18.5° 300 м - - - -
00:00 +20.2° В 2 3 10 км - облачно 745 754 -0.3 91% +18.6° 600 м - - - -
Среда, 18 Июля
Время местн. Темп Ветер Видим Явления Облачность нижн/средн/верх Атм. давл. Влжн Точка росы ВНГО R Сост. почвы Tg s
Напр Скр Прв ур.ст ур.м изм
21:00 +20.4° В,С-В 1 3 50 км небо без изменений {гроза} облачно 745 755 +0.5 89% +18.5° 600 м - - - -